sensor_id;sensor_type;location;lat;lon;timestamp;P1;durP1;ratioP1;P2;durP2;ratioP2
13263;SDS011;6700;51.988;7.646;2022-07-26T00:01:23;6.97;;;2.50;;
13263;SDS011;6700;51.988;7.646;2022-07-26T00:03:57;8.00;;;2.83;;
13263;SDS011;6700;51.988;7.646;2022-07-26T00:06:26;4.10;;;2.40;;
13263;SDS011;6700;51.988;7.646;2022-07-26T00:11:37;8.40;;;2.17;;
13263;SDS011;6700;51.988;7.646;2022-07-26T00:14:06;7.40;;;2.07;;
13263;SDS011;6700;51.988;7.646;2022-07-26T00:16:49;5.33;;;2.00;;
13263;SDS011;6700;51.988;7.646;2022-07-26T00:19:16;5.67;;;2.00;;
13263;SDS011;6700;51.988;7.646;2022-07-26T00:21:55;4.60;;;2.40;;
13263;SDS011;6700;51.988;7.646;2022-07-26T00:24:42;6.33;;;1.80;;
13263;SDS011;6700;51.988;7.646;2022-07-26T00:27:10;6.23;;;2.37;;
13263;SDS011;6700;51.988;7.646;2022-07-26T00:29:40;5.37;;;1.83;;
13263;SDS011;6700;51.988;7.646;2022-07-26T00:32:10;7.30;;;2.33;;
13263;SDS011;6700;51.988;7.646;2022-07-26T00:34:37;5.90;;;2.10;;
13263;SDS011;6700;51.988;7.646;2022-07-26T00:37:05;7.00;;;2.23;;
13263;SDS011;6700;51.988;7.646;2022-07-26T00:39:32;8.07;;;2.47;;
13263;SDS011;6700;51.988;7.646;2022-07-26T00:42:02;8.13;;;2.17;;
13263;SDS011;6700;51.988;7.646;2022-07-26T00:44:39;6.93;;;2.30;;
13263;SDS011;6700;51.988;7.646;2022-07-26T00:47:07;5.77;;;3.20;;
13263;SDS011;6700;51.988;7.646;2022-07-26T00:49:36;7.40;;;2.30;;
13263;SDS011;6700;51.988;7.646;2022-07-26T00:52:04;8.27;;;2.20;;
13263;SDS011;6700;51.988;7.646;2022-07-26T00:54:33;5.77;;;2.00;;
13263;SDS011;6700;51.988;7.646;2022-07-26T00:57:02;9.80;;;2.77;;
13263;SDS011;6700;51.988;7.646;2022-07-26T00:59:30;7.17;;;2.23;;
13263;SDS011;6700;51.988;7.646;2022-07-26T01:01:58;7.53;;;2.53;;
13263;SDS011;6700;51.988;7.646;2022-07-26T01:04:25;6.27;;;2.57;;
13263;SDS011;6700;51.988;7.646;2022-07-26T01:06:54;4.83;;;2.10;;
13263;SDS011;6700;51.988;7.646;2022-07-26T01:09:22;6.37;;;2.37;;
13263;SDS011;6700;51.988;7.646;2022-07-26T01:11:50;8.37;;;2.30;;
13263;SDS011;6700;51.988;7.646;2022-07-26T01:14:21;6.70;;;2.53;;
13263;SDS011;6700;51.988;7.646;2022-07-26T01:16:49;8.93;;;2.47;;
13263;SDS011;6700;51.988;7.646;2022-07-26T01:19:19;7.97;;;2.50;;
13263;SDS011;6700;51.988;7.646;2022-07-26T01:21:46;3.40;;;2.13;;
13263;SDS011;6700;51.988;7.646;2022-07-26T01:24:14;4.87;;;2.20;;
13263;SDS011;6700;51.988;7.646;2022-07-26T01:26:41;3.87;;;2.40;;
13263;SDS011;6700;51.988;7.646;2022-07-26T01:29:12;3.97;;;2.27;;
13263;SDS011;6700;51.988;7.646;2022-07-26T01:31:39;3.73;;;2.00;;
13263;SDS011;6700;51.988;7.646;2022-07-26T01:34:08;5.30;;;2.03;;
13263;SDS011;6700;51.988;7.646;2022-07-26T01:36:35;8.70;;;2.33;;
13263;SDS011;6700;51.988;7.646;2022-07-26T01:39:05;7.83;;;1.87;;
13263;SDS011;6700;51.988;7.646;2022-07-26T01:41:32;3.20;;;2.07;;
13263;SDS011;6700;51.988;7.646;2022-07-26T01:44:03;5.13;;;2.40;;
13263;SDS011;6700;51.988;7.646;2022-07-26T01:46:32;4.07;;;2.50;;
13263;SDS011;6700;51.988;7.646;2022-07-26T01:48:59;4.93;;;2.27;;
13263;SDS011;6700;51.988;7.646;2022-07-26T01:51:27;4.90;;;2.03;;
13263;SDS011;6700;51.988;7.646;2022-07-26T01:53:54;6.10;;;2.03;;
13263;SDS011;6700;51.988;7.646;2022-07-26T01:56:22;4.20;;;1.93;;
13263;SDS011;6700;51.988;7.646;2022-07-26T01:58:50;2.93;;;2.23;;
13263;SDS011;6700;51.988;7.646;2022-07-26T02:01:17;3.90;;;1.87;;
13263;SDS011;6700;51.988;7.646;2022-07-26T02:04:05;6.40;;;2.53;;
13263;SDS011;6700;51.988;7.646;2022-07-26T02:06:34;4.17;;;2.60;;
13263;SDS011;6700;51.988;7.646;2022-07-26T02:09:02;6.40;;;2.80;;
13263;SDS011;6700;51.988;7.646;2022-07-26T02:11:32;4.87;;;2.27;;
13263;SDS011;6700;51.988;7.646;2022-07-26T02:14:03;6.30;;;2.30;;
13263;SDS011;6700;51.988;7.646;2022-07-26T02:16:35;4.63;;;2.27;;
13263;SDS011;6700;51.988;7.646;2022-07-26T02:19:05;5.63;;;2.40;;
13263;SDS011;6700;51.988;7.646;2022-07-26T02:21:33;3.40;;;2.00;;
13263;SDS011;6700;51.988;7.646;2022-07-26T02:24:01;7.83;;;2.37;;
13263;SDS011;6700;51.988;7.646;2022-07-26T02:26:29;7.97;;;2.10;;
13263;SDS011;6700;51.988;7.646;2022-07-26T02:28:56;4.80;;;2.10;;
13263;SDS011;6700;51.988;7.646;2022-07-26T02:31:25;4.73;;;2.57;;
13263;SDS011;6700;51.988;7.646;2022-07-26T02:33:57;3.33;;;2.73;;
13263;SDS011;6700;51.988;7.646;2022-07-26T02:36:26;3.97;;;2.80;;
13263;SDS011;6700;51.988;7.646;2022-07-26T02:38:56;4.57;;;2.63;;
13263;SDS011;6700;51.988;7.646;2022-07-26T02:41:29;6.53;;;2.23;;
13263;SDS011;6700;51.988;7.646;2022-07-26T02:43:57;3.53;;;2.40;;
13263;SDS011;6700;51.988;7.646;2022-07-26T02:48:54;5.00;;;2.40;;
13263;SDS011;6700;51.988;7.646;2022-07-26T02:51:22;3.60;;;2.30;;
13263;SDS011;6700;51.988;7.646;2022-07-26T02:53:50;5.70;;;2.97;;
13263;SDS011;6700;51.988;7.646;2022-07-26T02:56:17;5.57;;;2.23;;
13263;SDS011;6700;51.988;7.646;2022-07-26T02:58:45;5.37;;;2.20;;
13263;SDS011;6700;51.988;7.646;2022-07-26T03:01:13;6.63;;;2.60;;
13263;SDS011;6700;51.988;7.646;2022-07-26T03:03:40;9.73;;;2.37;;
13263;SDS011;6700;51.988;7.646;2022-07-26T03:06:15;7.30;;;2.77;;
13263;SDS011;6700;51.988;7.646;2022-07-26T03:08:42;10.20;;;2.73;;
13263;SDS011;6700;51.988;7.646;2022-07-26T03:11:09;6.27;;;2.37;;
13263;SDS011;6700;51.988;7.646;2022-07-26T03:13:37;4.83;;;2.47;;
13263;SDS011;6700;51.988;7.646;2022-07-26T03:16:08;3.13;;;2.20;;
13263;SDS011;6700;51.988;7.646;2022-07-26T03:18:36;7.67;;;2.47;;
13263;SDS011;6700;51.988;7.646;2022-07-26T03:21:04;4.40;;;2.20;;
13263;SDS011;6700;51.988;7.646;2022-07-26T03:23:32;4.80;;;2.30;;
13263;SDS011;6700;51.988;7.646;2022-07-26T03:26:00;7.83;;;2.77;;
13263;SDS011;6700;51.988;7.646;2022-07-26T03:28:32;9.10;;;2.83;;
13263;SDS011;6700;51.988;7.646;2022-07-26T03:31:00;5.87;;;2.23;;
13263;SDS011;6700;51.988;7.646;2022-07-26T03:33:28;7.37;;;2.50;;
13263;SDS011;6700;51.988;7.646;2022-07-26T03:35:56;7.90;;;2.73;;
13263;SDS011;6700;51.988;7.646;2022-07-26T03:38:23;5.67;;;2.83;;
13263;SDS011;6700;51.988;7.646;2022-07-26T03:40:51;7.23;;;2.50;;
13263;SDS011;6700;51.988;7.646;2022-07-26T03:43:18;9.73;;;2.60;;
13263;SDS011;6700;51.988;7.646;2022-07-26T03:45:48;7.53;;;2.90;;
13263;SDS011;6700;51.988;7.646;2022-07-26T03:48:19;4.23;;;3.10;;
13263;SDS011;6700;51.988;7.646;2022-07-26T03:50:53;6.13;;;2.97;;
13263;SDS011;6700;51.988;7.646;2022-07-26T03:53:20;4.00;;;2.53;;
13263;SDS011;6700;51.988;7.646;2022-07-26T03:55:49;4.17;;;2.23;;
13263;SDS011;6700;51.988;7.646;2022-07-26T03:58:38;6.70;;;3.00;;
13263;SDS011;6700;51.988;7.646;2022-07-26T04:01:06;7.77;;;2.50;;
13263;SDS011;6700;51.988;7.646;2022-07-26T04:03:36;5.83;;;3.53;;
13263;SDS011;6700;51.988;7.646;2022-07-26T04:06:04;5.43;;;2.53;;
13263;SDS011;6700;51.988;7.646;2022-07-26T04:08:32;5.80;;;3.47;;
13263;SDS011;6700;51.988;7.646;2022-07-26T04:11:01;7.40;;;2.80;;
13263;SDS011;6700;51.988;7.646;2022-07-26T04:13:29;6.27;;;2.80;;
13263;SDS011;6700;51.988;7.646;2022-07-26T04:16:00;7.47;;;2.83;;
13263;SDS011;6700;51.988;7.646;2022-07-26T04:18:27;4.87;;;2.67;;
13263;SDS011;6700;51.988;7.646;2022-07-26T04:20:56;7.83;;;3.00;;
13263;SDS011;6700;51.988;7.646;2022-07-26T04:23:25;5.50;;;2.57;;
13263;SDS011;6700;51.988;7.646;2022-07-26T04:25:53;5.87;;;2.70;;
13263;SDS011;6700;51.988;7.646;2022-07-26T04:28:20;8.77;;;3.13;;
13263;SDS011;6700;51.988;7.646;2022-07-26T04:30:49;8.80;;;3.17;;
13263;SDS011;6700;51.988;7.646;2022-07-26T04:33:19;10.00;;;4.33;;
13263;SDS011;6700;51.988;7.646;2022-07-26T04:35:49;7.63;;;2.57;;
13263;SDS011;6700;51.988;7.646;2022-07-26T04:38:16;6.13;;;3.57;;
13263;SDS011;6700;51.988;7.646;2022-07-26T04:40:45;4.13;;;2.70;;
13263;SDS011;6700;51.988;7.646;2022-07-26T04:43:13;6.47;;;3.03;;
13263;SDS011;6700;51.988;7.646;2022-07-26T04:45:42;8.23;;;3.07;;
13263;SDS011;6700;51.988;7.646;2022-07-26T04:48:10;4.00;;;3.07;;
13263;SDS011;6700;51.988;7.646;2022-07-26T04:50:37;6.83;;;2.90;;
13263;SDS011;6700;51.988;7.646;2022-07-26T04:53:04;7.70;;;3.13;;
13263;SDS011;6700;51.988;7.646;2022-07-26T04:55:33;5.53;;;2.80;;
13263;SDS011;6700;51.988;7.646;2022-07-26T04:58:00;5.57;;;2.70;;
13263;SDS011;6700;51.988;7.646;2022-07-26T05:00:28;6.33;;;3.53;;
13263;SDS011;6700;51.988;7.646;2022-07-26T05:02:58;7.13;;;2.93;;
13263;SDS011;6700;51.988;7.646;2022-07-26T05:05:27;7.13;;;3.37;;
13263;SDS011;6700;51.988;7.646;2022-07-26T05:07:59;9.87;;;3.50;;
13263;SDS011;6700;51.988;7.646;2022-07-26T05:12:56;5.57;;;2.60;;
13263;SDS011;6700;51.988;7.646;2022-07-26T05:15:24;10.77;;;3.80;;
13263;SDS011;6700;51.988;7.646;2022-07-26T05:18:05;6.57;;;2.87;;
13263;SDS011;6700;51.988;7.646;2022-07-26T05:20:35;8.40;;;3.27;;
13263;SDS011;6700;51.988;7.646;2022-07-26T05:23:03;10.07;;;3.63;;
13263;SDS011;6700;51.988;7.646;2022-07-26T05:25:33;7.53;;;3.20;;
13263;SDS011;6700;51.988;7.646;2022-07-26T05:28:03;10.60;;;3.63;;
13263;SDS011;6700;51.988;7.646;2022-07-26T05:30:31;5.47;;;3.17;;
13263;SDS011;6700;51.988;7.646;2022-07-26T05:32:58;7.83;;;3.20;;
13263;SDS011;6700;51.988;7.646;2022-07-26T05:35:28;12.77;;;3.77;;
13263;SDS011;6700;51.988;7.646;2022-07-26T05:37:57;8.23;;;3.73;;
13263;SDS011;6700;51.988;7.646;2022-07-26T05:40:24;7.57;;;3.53;;
13263;SDS011;6700;51.988;7.646;2022-07-26T05:42:51;8.57;;;3.17;;
13263;SDS011;6700;51.988;7.646;2022-07-26T05:45:19;6.93;;;3.07;;
13263;SDS011;6700;51.988;7.646;2022-07-26T05:47:50;8.60;;;4.60;;
13263;SDS011;6700;51.988;7.646;2022-07-26T05:50:19;5.47;;;3.33;;
13263;SDS011;6700;51.988;7.646;2022-07-26T05:52:47;14.33;;;3.60;;
13263;SDS011;6700;51.988;7.646;2022-07-26T05:55:14;9.83;;;3.47;;
13263;SDS011;6700;51.988;7.646;2022-07-26T05:57:41;5.97;;;3.30;;
13263;SDS011;6700;51.988;7.646;2022-07-26T06:00:15;6.97;;;3.13;;
13263;SDS011;6700;51.988;7.646;2022-07-26T06:02:42;9.00;;;3.57;;
13263;SDS011;6700;51.988;7.646;2022-07-26T06:05:09;7.63;;;2.97;;
13263;SDS011;6700;51.988;7.646;2022-07-26T06:07:37;11.40;;;3.63;;
13263;SDS011;6700;51.988;7.646;2022-07-26T06:10:04;5.10;;;2.90;;
13263;SDS011;6700;51.988;7.646;2022-07-26T06:12:31;7.43;;;3.03;;
13263;SDS011;6700;51.988;7.646;2022-07-26T06:15:00;6.57;;;2.67;;
13263;SDS011;6700;51.988;7.646;2022-07-26T06:17:28;10.73;;;3.37;;
13263;SDS011;6700;51.988;7.646;2022-07-26T06:19:56;8.20;;;3.53;;
13263;SDS011;6700;51.988;7.646;2022-07-26T06:22:25;8.33;;;3.13;;
13263;SDS011;6700;51.988;7.646;2022-07-26T06:24:52;7.73;;;3.00;;
13263;SDS011;6700;51.988;7.646;2022-07-26T06:27:21;11.10;;;4.17;;
13263;SDS011;6700;51.988;7.646;2022-07-26T06:29:48;6.70;;;3.80;;
13263;SDS011;6700;51.988;7.646;2022-07-26T06:32:18;8.70;;;3.30;;
13263;SDS011;6700;51.988;7.646;2022-07-26T06:34:45;7.43;;;3.73;;
13263;SDS011;6700;51.988;7.646;2022-07-26T06:37:12;4.73;;;3.00;;
13263;SDS011;6700;51.988;7.646;2022-07-26T06:39:41;5.87;;;3.70;;
13263;SDS011;6700;51.988;7.646;2022-07-26T06:42:08;8.77;;;3.60;;
13263;SDS011;6700;51.988;7.646;2022-07-26T06:44:36;10.57;;;4.40;;
13263;SDS011;6700;51.988;7.646;2022-07-26T06:47:03;8.02;;;3.22;;
13263;SDS011;6700;51.988;7.646;2022-07-26T06:49:30;4.65;;;2.95;;
13263;SDS011;6700;51.988;7.646;2022-07-26T06:51:57;6.13;;;2.87;;
13263;SDS011;6700;51.988;7.646;2022-07-26T06:54:25;7.35;;;3.88;;
13263;SDS011;6700;51.988;7.646;2022-07-26T06:56:53;8.47;;;3.23;;
13263;SDS011;6700;51.988;7.646;2022-07-26T06:59:20;5.35;;;3.35;;
13263;SDS011;6700;51.988;7.646;2022-07-26T07:01:47;8.30;;;3.40;;
13263;SDS011;6700;51.988;7.646;2022-07-26T07:04:25;4.43;;;3.08;;
13263;SDS011;6700;51.988;7.646;2022-07-26T07:06:52;6.55;;;3.80;;
13263;SDS011;6700;51.988;7.646;2022-07-26T07:09:21;7.17;;;2.97;;
13263;SDS011;6700;51.988;7.646;2022-07-26T07:11:50;5.87;;;3.40;;
13263;SDS011;6700;51.988;7.646;2022-07-26T07:14:25;10.73;;;3.50;;
13263;SDS011;6700;51.988;7.646;2022-07-26T07:16:53;4.60;;;3.17;;
13263;SDS011;6700;51.988;7.646;2022-07-26T07:19:24;6.90;;;3.13;;
13263;SDS011;6700;51.988;7.646;2022-07-26T07:21:55;9.80;;;3.53;;
13263;SDS011;6700;51.988;7.646;2022-07-26T07:24:22;5.23;;;3.07;;
13263;SDS011;6700;51.988;7.646;2022-07-26T07:26:50;4.30;;;2.80;;
13263;SDS011;6700;51.988;7.646;2022-07-26T07:29:19;9.80;;;3.35;;
13263;SDS011;6700;51.988;7.646;2022-07-26T07:31:47;3.53;;;2.95;;
13263;SDS011;6700;51.988;7.646;2022-07-26T07:34:15;9.43;;;3.63;;
13263;SDS011;6700;51.988;7.646;2022-07-26T07:36:44;7.87;;;3.77;;
13263;SDS011;6700;51.988;7.646;2022-07-26T07:39:12;8.13;;;3.47;;
13263;SDS011;6700;51.988;7.646;2022-07-26T07:41:46;6.40;;;3.10;;
13263;SDS011;6700;51.988;7.646;2022-07-26T07:44:13;6.75;;;3.58;;
13263;SDS011;6700;51.988;7.646;2022-07-26T07:46:42;6.65;;;3.30;;
13263;SDS011;6700;51.988;7.646;2022-07-26T07:49:09;6.00;;;3.47;;
13263;SDS011;6700;51.988;7.646;2022-07-26T07:51:37;5.55;;;2.95;;
13263;SDS011;6700;51.988;7.646;2022-07-26T07:54:05;4.50;;;2.72;;
13263;SDS011;6700;51.988;7.646;2022-07-26T07:56:33;5.97;;;2.67;;
13263;SDS011;6700;51.988;7.646;2022-07-26T07:59:00;9.52;;;2.90;;
13263;SDS011;6700;51.988;7.646;2022-07-26T08:01:28;9.13;;;3.58;;
13263;SDS011;6700;51.988;7.646;2022-07-26T08:04:07;7.32;;;2.83;;
13263;SDS011;6700;51.988;7.646;2022-07-26T08:06:35;5.05;;;2.38;;
13263;SDS011;6700;51.988;7.646;2022-07-26T08:09:06;4.63;;;2.50;;
13263;SDS011;6700;51.988;7.646;2022-07-26T08:11:45;5.88;;;3.00;;
13263;SDS011;6700;51.988;7.646;2022-07-26T08:14:16;2.95;;;2.47;;
13263;SDS011;6700;51.988;7.646;2022-07-26T08:16:45;9.07;;;2.53;;
13263;SDS011;6700;51.988;7.646;2022-07-26T08:19:13;5.03;;;2.90;;
13263;SDS011;6700;51.988;7.646;2022-07-26T08:21:42;7.97;;;2.90;;
13263;SDS011;6700;51.988;7.646;2022-07-26T08:24:12;7.90;;;2.72;;
13263;SDS011;6700;51.988;7.646;2022-07-26T08:26:39;3.20;;;2.50;;
13263;SDS011;6700;51.988;7.646;2022-07-26T08:29:07;3.95;;;2.70;;
13263;SDS011;6700;51.988;7.646;2022-07-26T08:31:34;4.63;;;2.75;;
13263;SDS011;6700;51.988;7.646;2022-07-26T08:34:02;5.95;;;2.35;;
13263;SDS011;6700;51.988;7.646;2022-07-26T08:36:29;6.07;;;2.90;;
13263;SDS011;6700;51.988;7.646;2022-07-26T08:38:58;7.03;;;3.38;;
13263;SDS011;6700;51.988;7.646;2022-07-26T08:41:26;7.37;;;3.17;;
13263;SDS011;6700;51.988;7.646;2022-07-26T08:43:54;3.37;;;2.90;;
13263;SDS011;6700;51.988;7.646;2022-07-26T08:46:23;6.67;;;2.83;;
13263;SDS011;6700;51.988;7.646;2022-07-26T08:48:54;8.70;;;3.17;;
13263;SDS011;6700;51.988;7.646;2022-07-26T08:51:23;4.67;;;3.80;;
13263;SDS011;6700;51.988;7.646;2022-07-26T08:53:54;4.80;;;3.87;;
13263;SDS011;6700;51.988;7.646;2022-07-26T08:56:29;8.27;;;3.83;;
13263;SDS011;6700;51.988;7.646;2022-07-26T08:59:00;5.70;;;3.63;;
13263;SDS011;6700;51.988;7.646;2022-07-26T09:02:05;5.37;;;3.27;;
13263;SDS011;6700;51.988;7.646;2022-07-26T09:04:40;7.80;;;3.47;;
13263;SDS011;6700;51.988;7.646;2022-07-26T09:09:38;8.83;;;3.73;;
13263;SDS011;6700;51.988;7.646;2022-07-26T09:12:14;5.17;;;3.30;;
13263;SDS011;6700;51.988;7.646;2022-07-26T09:14:43;5.70;;;3.10;;
13263;SDS011;6700;51.988;7.646;2022-07-26T09:17:22;5.33;;;3.10;;
13263;SDS011;6700;51.988;7.646;2022-07-26T09:20:10;5.27;;;2.80;;
13263;SDS011;6700;51.988;7.646;2022-07-26T09:23:06;6.50;;;3.30;;
13263;SDS011;6700;51.988;7.646;2022-07-26T09:25:38;4.67;;;3.03;;
13263;SDS011;6700;51.988;7.646;2022-07-26T09:28:22;5.37;;;2.90;;
13263;SDS011;6700;51.988;7.646;2022-07-26T09:30:50;5.27;;;2.77;;
13263;SDS011;6700;51.988;7.646;2022-07-26T09:33:18;5.80;;;2.83;;
13263;SDS011;6700;51.988;7.646;2022-07-26T09:35:58;5.63;;;3.00;;
13263;SDS011;6700;51.988;7.646;2022-07-26T09:38:37;7.00;;;2.63;;
13263;SDS011;6700;51.988;7.646;2022-07-26T09:43:58;3.10;;;2.55;;
13263;SDS011;6700;51.988;7.646;2022-07-26T09:46:55;4.40;;;2.70;;
13263;SDS011;6700;51.988;7.646;2022-07-26T09:49:24;3.97;;;3.00;;
13263;SDS011;6700;51.988;7.646;2022-07-26T09:52:22;3.30;;;2.53;;
13263;SDS011;6700;51.988;7.646;2022-07-26T09:55:25;5.32;;;2.70;;
13263;SDS011;6700;51.988;7.646;2022-07-26T09:58:17;3.95;;;2.28;;
13263;SDS011;6700;51.988;7.646;2022-07-26T10:01:07;4.07;;;2.47;;
13263;SDS011;6700;51.988;7.646;2022-07-26T10:03:36;3.10;;;1.60;;
13263;SDS011;6700;51.988;7.646;2022-07-26T10:06:05;6.97;;;2.13;;
13263;SDS011;6700;51.988;7.646;2022-07-26T10:08:33;6.43;;;2.97;;
13263;SDS011;6700;51.988;7.646;2022-07-26T10:11:03;2.70;;;1.63;;
13263;SDS011;6700;51.988;7.646;2022-07-26T10:13:30;4.37;;;1.90;;
13263;SDS011;6700;51.988;7.646;2022-07-26T10:15:58;1.90;;;1.40;;
13263;SDS011;6700;51.988;7.646;2022-07-26T10:21:23;3.07;;;1.50;;
13263;SDS011;6700;51.988;7.646;2022-07-26T10:24:01;2.63;;;1.87;;
13263;SDS011;6700;51.988;7.646;2022-07-26T10:26:35;1.87;;;1.50;;
13263;SDS011;6700;51.988;7.646;2022-07-26T10:31:46;4.67;;;1.57;;
13263;SDS011;6700;51.988;7.646;2022-07-26T10:34:30;6.20;;;1.90;;
13263;SDS011;6700;51.988;7.646;2022-07-26T10:37:09;3.10;;;1.50;;
13263;SDS011;6700;51.988;7.646;2022-07-26T10:39:37;1.80;;;1.50;;
13263;SDS011;6700;51.988;7.646;2022-07-26T10:42:07;2.90;;;2.20;;
13263;SDS011;6700;51.988;7.646;2022-07-26T10:44:41;3.27;;;1.70;;
13263;SDS011;6700;51.988;7.646;2022-07-26T10:47:11;3.67;;;1.80;;
13263;SDS011;6700;51.988;7.646;2022-07-26T10:50:02;2.00;;;1.50;;
13263;SDS011;6700;51.988;7.646;2022-07-26T10:52:32;2.80;;;1.60;;
13263;SDS011;6700;51.988;7.646;2022-07-26T10:57:36;5.87;;;1.93;;
13263;SDS011;6700;51.988;7.646;2022-07-26T11:00:08;5.77;;;2.23;;
13263;SDS011;6700;51.988;7.646;2022-07-26T11:02:36;2.73;;;1.90;;
13263;SDS011;6700;51.988;7.646;2022-07-26T11:05:05;2.83;;;1.77;;
13263;SDS011;6700;51.988;7.646;2022-07-26T11:07:54;3.20;;;2.27;;
13263;SDS011;6700;51.988;7.646;2022-07-26T11:10:28;3.47;;;2.50;;
13263;SDS011;6700;51.988;7.646;2022-07-26T11:13:07;4.07;;;2.30;;
13263;SDS011;6700;51.988;7.646;2022-07-26T11:15:35;3.47;;;2.27;;
13263;SDS011;6700;51.988;7.646;2022-07-26T11:18:13;3.27;;;2.23;;
13263;SDS011;6700;51.988;7.646;2022-07-26T11:20:45;5.83;;;2.30;;
13263;SDS011;6700;51.988;7.646;2022-07-26T11:23:20;4.33;;;2.20;;
13263;SDS011;6700;51.988;7.646;2022-07-26T11:26:01;2.57;;;2.13;;
13263;SDS011;6700;51.988;7.646;2022-07-26T11:28:28;5.27;;;2.40;;
13263;SDS011;6700;51.988;7.646;2022-07-26T11:30:56;4.50;;;2.30;;
13263;SDS011;6700;51.988;7.646;2022-07-26T11:33:35;2.27;;;1.90;;
13263;SDS011;6700;51.988;7.646;2022-07-26T11:36:03;2.17;;;1.67;;
13263;SDS011;6700;51.988;7.646;2022-07-26T11:38:47;2.67;;;2.10;;
13263;SDS011;6700;51.988;7.646;2022-07-26T11:41:23;3.33;;;1.53;;
13263;SDS011;6700;51.988;7.646;2022-07-26T11:44:00;4.32;;;1.92;;
13263;SDS011;6700;51.988;7.646;2022-07-26T11:46:38;2.80;;;1.70;;
13263;SDS011;6700;51.988;7.646;2022-07-26T11:49:39;2.27;;;1.80;;
13263;SDS011;6700;51.988;7.646;2022-07-26T11:52:20;3.30;;;1.83;;
13263;SDS011;6700;51.988;7.646;2022-07-26T11:54:56;4.63;;;1.70;;
13263;SDS011;6700;51.988;7.646;2022-07-26T11:57:27;1.83;;;1.73;;
13263;SDS011;6700;51.988;7.646;2022-07-26T11:59:55;3.27;;;1.90;;
13263;SDS011;6700;51.988;7.646;2022-07-26T12:02:24;2.03;;;1.90;;
13263;SDS011;6700;51.988;7.646;2022-07-26T12:05:14;3.60;;;1.90;;
13263;SDS011;6700;51.988;7.646;2022-07-26T12:07:55;3.73;;;2.10;;
13263;SDS011;6700;51.988;7.646;2022-07-26T12:10:22;3.40;;;2.43;;
13263;SDS011;6700;51.988;7.646;2022-07-26T12:13:04;4.55;;;1.85;;
13263;SDS011;6700;51.988;7.646;2022-07-26T12:15:46;3.07;;;1.50;;
13263;SDS011;6700;51.988;7.646;2022-07-26T12:18:23;4.85;;;2.70;;
13263;SDS011;6700;51.988;7.646;2022-07-26T12:21:06;3.63;;;2.10;;
13263;SDS011;6700;51.988;7.646;2022-07-26T12:26:25;4.80;;;1.63;;
13263;SDS011;6700;51.988;7.646;2022-07-26T12:28:55;8.88;;;2.55;;
13263;SDS011;6700;51.988;7.646;2022-07-26T12:31:30;1.60;;;1.50;;
13263;SDS011;6700;51.988;7.646;2022-07-26T12:34:02;5.07;;;2.07;;
13263;SDS011;6700;51.988;7.646;2022-07-26T12:36:30;2.40;;;1.97;;
13263;SDS011;6700;51.988;7.646;2022-07-26T12:38:59;3.83;;;1.90;;
13263;SDS011;6700;51.988;7.646;2022-07-26T12:41:37;3.13;;;1.87;;
13263;SDS011;6700;51.988;7.646;2022-07-26T12:44:06;3.17;;;2.07;;
13263;SDS011;6700;51.988;7.646;2022-07-26T12:46:38;4.53;;;1.70;;
13263;SDS011;6700;51.988;7.646;2022-07-26T12:49:06;1.63;;;1.47;;
13263;SDS011;6700;51.988;7.646;2022-07-26T12:51:33;5.77;;;1.97;;
13263;SDS011;6700;51.988;7.646;2022-07-26T12:54:00;3.40;;;1.83;;
13263;SDS011;6700;51.988;7.646;2022-07-26T12:56:29;2.23;;;1.70;;
13263;SDS011;6700;51.988;7.646;2022-07-26T12:58:56;2.43;;;1.80;;
13263;SDS011;6700;51.988;7.646;2022-07-26T13:01:27;5.50;;;1.77;;
13263;SDS011;6700;51.988;7.646;2022-07-26T13:03:55;3.27;;;1.40;;
13263;SDS011;6700;51.988;7.646;2022-07-26T13:06:23;2.30;;;1.40;;
13263;SDS011;6700;51.988;7.646;2022-07-26T13:08:50;2.87;;;1.70;;
13263;SDS011;6700;51.988;7.646;2022-07-26T13:11:19;3.60;;;1.80;;
13263;SDS011;6700;51.988;7.646;2022-07-26T13:13:46;2.53;;;1.53;;
13263;SDS011;6700;51.988;7.646;2022-07-26T13:16:15;2.63;;;1.73;;
13263;SDS011;6700;51.988;7.646;2022-07-26T13:18:44;3.30;;;1.47;;
13263;SDS011;6700;51.988;7.646;2022-07-26T13:21:12;4.03;;;1.97;;
13263;SDS011;6700;51.988;7.646;2022-07-26T13:46:48;4.30;;;1.98;;
13263;SDS011;6700;51.988;7.646;2022-07-26T13:49:16;4.30;;;1.97;;
13263;SDS011;6700;51.988;7.646;2022-07-26T13:51:45;1.85;;;1.75;;
13263;SDS011;6700;51.988;7.646;2022-07-26T13:54:29;2.25;;;1.90;;
13263;SDS011;6700;51.988;7.646;2022-07-26T13:56:57;1.90;;;1.70;;
13263;SDS011;6700;51.988;7.646;2022-07-26T13:59:26;4.88;;;1.85;;
13263;SDS011;6700;51.988;7.646;2022-07-26T14:01:54;2.90;;;1.60;;
13263;SDS011;6700;51.988;7.646;2022-07-26T14:04:22;3.78;;;2.00;;
13263;SDS011;6700;51.988;7.646;2022-07-26T14:06:49;2.20;;;1.15;;
13263;SDS011;6700;51.988;7.646;2022-07-26T14:09:17;2.13;;;1.55;;
13263;SDS011;6700;51.988;7.646;2022-07-26T14:11:45;3.00;;;1.73;;
13263;SDS011;6700;51.988;7.646;2022-07-26T14:14:12;1.05;;;1.02;;
13263;SDS011;6700;51.988;7.646;2022-07-26T14:16:40;6.78;;;1.52;;
13263;SDS011;6700;51.988;7.646;2022-07-26T14:19:12;5.68;;;1.30;;
13263;SDS011;6700;51.988;7.646;2022-07-26T14:21:40;2.70;;;1.20;;
13263;SDS011;6700;51.988;7.646;2022-07-26T14:24:24;4.00;;;1.25;;
13263;SDS011;6700;51.988;7.646;2022-07-26T14:26:51;3.92;;;1.02;;
13263;SDS011;6700;51.988;7.646;2022-07-26T14:29:24;6.15;;;2.15;;
13263;SDS011;6700;51.988;7.646;2022-07-26T14:31:52;1.90;;;1.05;;
13263;SDS011;6700;51.988;7.646;2022-07-26T14:34:19;2.10;;;1.38;;
13263;SDS011;6700;51.988;7.646;2022-07-26T14:36:46;2.97;;;1.50;;
13263;SDS011;6700;51.988;7.646;2022-07-26T14:39:13;4.32;;;1.40;;
13263;SDS011;6700;51.988;7.646;2022-07-26T14:41:41;1.48;;;1.33;;
13263;SDS011;6700;51.988;7.646;2022-07-26T14:44:12;1.27;;;1.13;;
13263;SDS011;6700;51.988;7.646;2022-07-26T14:46:46;2.07;;;1.23;;
13263;SDS011;6700;51.988;7.646;2022-07-26T14:49:19;7.17;;;1.30;;
13263;SDS011;6700;51.988;7.646;2022-07-26T14:51:59;2.80;;;1.48;;
13263;SDS011;6700;51.988;7.646;2022-07-26T15:05:46;2.47;;;1.00;;
13263;SDS011;6700;51.988;7.646;2022-07-26T15:12:14;4.43;;;1.40;;
13263;SDS011;6700;51.988;7.646;2022-07-26T15:14:43;3.70;;;1.90;;
13263;SDS011;6700;51.988;7.646;2022-07-26T15:17:11;3.93;;;1.40;;
13263;SDS011;6700;51.988;7.646;2022-07-26T15:19:39;4.23;;;1.90;;
13263;SDS011;6700;51.988;7.646;2022-07-26T15:22:08;4.70;;;1.60;;
13263;SDS011;6700;51.988;7.646;2022-07-26T15:24:35;2.35;;;1.20;;
13263;SDS011;6700;51.988;7.646;2022-07-26T15:27:05;4.35;;;1.58;;
13263;SDS011;6700;51.988;7.646;2022-07-26T15:29:32;7.40;;;1.50;;
13263;SDS011;6700;51.988;7.646;2022-07-26T15:32:01;3.33;;;1.70;;
13263;SDS011;6700;51.988;7.646;2022-07-26T15:34:28;3.03;;;1.40;;
13263;SDS011;6700;51.988;7.646;2022-07-26T15:36:56;3.53;;;1.80;;
13263;SDS011;6700;51.988;7.646;2022-07-26T15:39:23;2.88;;;1.58;;
13263;SDS011;6700;51.988;7.646;2022-07-26T15:41:50;4.93;;;1.75;;
13263;SDS011;6700;51.988;7.646;2022-07-26T15:44:20;5.90;;;2.10;;
13263;SDS011;6700;51.988;7.646;2022-07-26T15:46:51;1.67;;;1.27;;
13263;SDS011;6700;51.988;7.646;2022-07-26T15:49:18;4.63;;;1.80;;
13263;SDS011;6700;51.988;7.646;2022-07-26T15:51:45;2.40;;;1.90;;
13263;SDS011;6700;51.988;7.646;2022-07-26T15:54:13;2.60;;;1.80;;
13263;SDS011;6700;51.988;7.646;2022-07-26T16:00:32;1.60;;;1.00;;
13263;SDS011;6700;51.988;7.646;2022-07-26T16:04:04;5.43;;;1.50;;
13263;SDS011;6700;51.988;7.646;2022-07-26T16:06:52;4.23;;;1.57;;
13263;SDS011;6700;51.988;7.646;2022-07-26T16:09:19;2.20;;;1.50;;
13263;SDS011;6700;51.988;7.646;2022-07-26T16:11:47;3.80;;;1.53;;
13263;SDS011;6700;51.988;7.646;2022-07-26T16:14:15;14.30;;;2.30;;
13263;SDS011;6700;51.988;7.646;2022-07-26T16:16:42;4.63;;;2.03;;
13263;SDS011;6700;51.988;7.646;2022-07-26T16:19:11;7.03;;;1.90;;
13263;SDS011;6700;51.988;7.646;2022-07-26T16:21:39;6.20;;;2.13;;
13263;SDS011;6700;51.988;7.646;2022-07-26T16:24:08;6.03;;;1.80;;
13263;SDS011;6700;51.988;7.646;2022-07-26T16:26:37;4.10;;;1.97;;
13263;SDS011;6700;51.988;7.646;2022-07-26T16:29:06;3.90;;;1.80;;